Time;durP1;ratioP1;P1;durP2;ratioP2;P2;SDS_P1;SDS_P2;PMS_P1;PMS_P2;Temp;Humidity;BMP_temperature;BMP_pressure;BME280_temperature;BME280_humidity;BME280_pressure;Samples;Min_cycle;Max_cycle;Signal;HPM_P1;HPM_P2
2023/09/13 00:02:02;;;;;;;;;;;;;;;19.62;100.00;101332.63;5113401;28;20262;-47
2023/09/13 00:04:28;;;;;;;0.00;0.00;;;;;;;19.64;100.00;101323.16;5098208;28;20048;-45
2023/09/13 00:06:53;;;;;;;0.00;0.00;;;;;;;19.67;100.00;101330.09;5106586;28;20028;-47
2023/09/13 00:09:18;;;;;;;0.00;0.00;;;;;;;19.69;100.00;101330.66;5100039;28;20477;-43
2023/09/13 00:11:44;;;;;;;0.00;0.00;;;;;;;19.67;100.00;101330.91;5112551;28;20528;-45
2023/09/13 00:14:09;;;;;;;0.00;0.00;;;;;;;19.65;100.00;101333.00;5112283;28;20028;-47
2023/09/13 00:16:35;;;;;;;0.00;0.00;;;;;;;19.68;100.00;101323.53;5112214;28;20492;-43
2023/09/13 00:19:03;;;;;;;0.00;0.00;;;;;;;19.65;100.00;101315.78;5111993;28;20031;-48
2023/09/13 00:21:29;;;;;;;0.00;0.00;;;;;;;19.61;100.00;101317.28;5098900;28;20052;-46
2023/09/13 00:23:54;;;;;;;0.00;0.00;;;;;;;19.60;100.00;101321.94;5091764;28;20028;-46
2023/09/13 00:26:19;;;;;;;0.00;0.00;;;;;;;19.50;100.00;101327.94;5091729;28;20032;-44
2023/09/13 00:28:46;;;;;;;0.00;0.00;;;;;;;19.46;100.00;101326.72;5090843;28;20058;-43
2023/09/13 00:31:11;;;;;;;0.00;0.00;;;;;;;19.41;100.00;101317.56;5103048;28;20028;-46
2023/09/13 00:33:36;;;;;;;0.00;0.00;;;;;;;19.37;100.00;101324.53;5095025;28;20327;-45
2023/09/13 00:36:02;;;;;;;0.00;0.00;;;;;;;19.33;100.00;101332.34;5092628;28;20032;-43
2023/09/13 00:38:27;;;;;;;0.00;0.00;;;;;;;19.32;100.00;101335.31;5108523;28;20031;-47
2023/09/13 00:40:53;;;;;;;0.00;0.00;;;;;;;19.33;100.00;101342.44;5102484;28;20023;-45
2023/09/13 00:43:18;;;;;;;0.00;0.00;;;;;;;19.35;100.00;101341.13;5102940;28;20465;-45
2023/09/13 00:45:45;;;;;;;0.00;0.00;;;;;;;19.39;100.00;101336.91;5100530;28;20416;-44
2023/09/13 00:48:10;;;;;;;0.00;0.00;;;;;;;19.41;100.00;101331.22;5095092;28;20093;-46
2023/09/13 00:50:37;;;;;;;0.00;0.00;;;;;;;19.46;100.00;101329.47;5103968;28;20340;-43
2023/09/13 00:53:05;;;;;;;0.00;0.00;;;;;;;19.48;100.00;101338.25;5110502;28;20490;-45
2023/09/13 00:55:31;;;;;;;0.00;0.00;;;;;;;19.43;100.00;101327.19;5091477;28;20054;-49
2023/09/13 00:57:56;;;;;;;0.00;0.00;;;;;;;19.45;100.00;101325.06;5098085;28;20020;-45
2023/09/13 01:00:24;;;;;;;0.00;0.00;;;;;;;19.47;100.00;101333.03;5090558;28;20129;-47
2023/09/13 01:02:49;;;;;;;0.00;0.00;;;;;;;19.49;100.00;101326.28;5089552;28;20107;-49
2023/09/13 01:05:15;;;;;;;0.00;0.00;;;;;;;19.51;100.00;101329.63;5089572;28;20158;-46
2023/09/13 01:07:41;;;;;;;0.00;0.00;;;;;;;19.53;100.00;101327.47;5091694;28;20389;-46
2023/09/13 01:10:08;;;;;;;0.00;0.00;;;;;;;19.53;100.00;101326.63;5090923;28;20550;-46
2023/09/13 01:12:33;;;;;;;0.00;0.00;;;;;;;19.53;100.00;101321.19;5099977;28;20076;-44
2023/09/13 01:15:00;;;;;;;0.00;0.00;;;;;;;19.53;100.00;101313.81;5094518;28;20101;-46
2023/09/13 01:17:56;;;;;;;0.00;0.00;;;;;;;19.51;100.00;101312.41;5102070;28;20428;-47
2023/09/13 01:20:30;;;;;;;0.00;0.00;;;;;;;19.48;100.00;101305.50;5104570;28;20506;-46
2023/09/13 01:23:33;;;;;;;0.00;0.00;;;;;;;19.45;100.00;101308.66;5090159;28;20032;-46
2023/09/13 01:26:16;;;;;;;0.00;0.00;;;;;;;19.39;100.00;101309.59;5104488;28;20061;-44
2023/09/13 01:28:49;;;;;;;0.00;0.00;;;;;;;19.35;100.00;101308.38;5106331;28;20397;-47
2023/09/13 01:31:20;;;;;;;0.00;0.00;;;;;;;19.32;100.00;101308.84;5089314;28;20086;-49
2023/09/13 01:33:46;;;;;;;0.00;0.00;;;;;;;19.28;100.00;101304.91;5107739;28;20024;-48
2023/09/13 01:36:12;;;;;;;0.00;0.00;;;;;;;19.21;100.00;101310.44;5091058;28;20184;-45
2023/09/13 01:38:37;;;;;;;0.00;0.00;;;;;;;19.19;100.00;101309.81;5100425;28;20097;-45
2023/09/13 01:41:14;;;;;;;0.00;0.00;;;;;;;19.17;100.00;101319.28;5089472;28;20024;-46
2023/09/13 01:43:41;;;;;;;0.00;0.00;;;;;;;19.13;100.00;101315.38;5089368;28;20052;-45
2023/09/13 01:46:07;;;;;;;0.00;0.00;;;;;;;19.08;100.00;101313.31;5091505;28;20473;-45
2023/09/13 01:48:34;;;;;;;0.00;0.00;;;;;;;19.00;100.00;101311.72;5088585;28;20069;-47
2023/09/13 01:50:59;;;;;;;0.00;0.00;;;;;;;18.97;100.00;101323.09;5093689;28;20371;-45
2023/09/13 01:53:24;;;;;;;0.00;0.00;;;;;;;18.91;100.00;101324.00;5104231;28;20020;-44
2023/09/13 01:55:50;;;;;;;0.00;0.00;;;;;;;18.87;100.00;101328.22;5088664;28;20265;-48
2023/09/13 01:58:15;;;;;;;0.00;0.00;;;;;;;18.85;100.00;101324.88;5094679;28;20028;-48
2023/09/13 02:00:41;;;;;;;0.00;0.00;;;;;;;18.83;100.00;101332.47;5095036;28;20472;-46
2023/09/13 02:03:06;;;;;;;0.00;0.00;;;;;;;18.80;100.00;101330.19;5109004;28;20481;-45
2023/09/13 02:05:32;;;;;;;0.00;0.00;;;;;;;18.79;100.00;101323.06;5094392;28;20024;-43
2023/09/13 02:07:57;;;;;;;0.00;0.00;;;;;;;18.79;100.00;101331.25;5091266;28;20024;-46
2023/09/13 02:10:22;;;;;;;0.00;0.00;;;;;;;18.78;100.00;101326.88;5107126;28;20031;-43
2023/09/13 02:12:48;;;;;;;0.00;0.00;;;;;;;18.80;100.00;101322.84;5098376;28;20020;-46
2023/09/13 02:15:13;;;;;;;0.00;0.00;;;;;;;18.79;100.00;101326.63;5098978;28;20074;-44
2023/09/13 02:17:39;;;;;;;0.00;0.00;;;;;;;18.82;100.00;101342.53;5106126;28;20039;-43
2023/09/13 02:20:05;;;;;;;0.00;0.00;;;;;;;18.85;100.00;101341.25;5101591;28;20028;-44
2023/09/13 02:22:30;;;;;;;0.00;0.00;;;;;;;18.86;100.00;101345.66;5109018;28;20689;-44
2023/09/13 02:24:56;;;;;;;0.00;0.00;;;;;;;18.86;100.00;101348.38;5094320;28;20034;-47
2023/09/13 02:27:21;;;;;;;0.00;0.00;;;;;;;18.83;100.00;101346.13;5103248;28;20038;-43
2023/09/13 02:29:46;;;;;;;0.00;0.00;;;;;;;18.82;100.00;101347.97;5114627;28;20034;-45
2023/09/13 02:32:12;;;;;;;0.00;0.00;;;;;;;18.79;100.00;101347.59;5114561;28;20397;-45
2023/09/13 02:34:37;;;;;;;0.00;0.00;;;;;;;18.75;100.00;101346.41;5114124;28;20108;-44
2023/09/13 02:37:03;;;;;;;0.00;0.00;;;;;;;18.69;100.00;101339.91;5111662;28;20027;-46
2023/09/13 02:39:34;;;;;;;0.00;0.00;;;;;;;18.68;100.00;101340.13;5114471;28;20473;-45
2023/09/13 02:42:00;;;;;;;0.00;0.00;;;;;;;18.66;100.00;101348.53;5114283;28;20035;-45
2023/09/13 02:44:26;;;;;;;0.00;0.00;;;;;;;18.66;100.00;101353.97;5112712;28;20057;-45
2023/09/13 02:46:51;;;;;;;0.00;0.00;;;;;;;18.65;100.00;101357.78;5108516;27;20480;-46
2023/09/13 02:49:17;;;;;;;0.00;0.00;;;;;;;18.65;100.00;101352.31;5093672;28;20282;-44
2023/09/13 02:51:42;;;;;;;0.00;0.00;;;;;;;18.63;100.00;101355.25;5107821;28;20426;-46
2023/09/13 02:54:07;;;;;;;0.00;0.00;;;;;;;18.61;100.00;101354.63;5103260;28;20363;-45
2023/09/13 02:56:33;;;;;;;0.00;0.00;;;;;;;18.61;100.00;101351.91;5095592;28;20066;-45
2023/09/13 02:58:58;;;;;;;0.00;0.00;;;;;;;18.58;100.00;101352.38;5113720;27;20510;-45
2023/09/13 03:01:23;;;;;;;0.00;0.00;;;;;;;18.59;100.00;101351.31;5112130;28;20034;-45
2023/09/13 03:03:49;;;;;;;0.00;0.00;;;;;;;18.62;100.00;101355.50;5113665;28;20040;-45
2023/09/13 03:06:17;;;;;;;0.00;0.00;;;;;;;18.61;100.00;101351.91;5113886;28;20028;-48
2023/09/13 03:08:43;;;;;;;0.00;0.00;;;;;;;18.64;100.00;101356.09;5113336;28;20028;-47
2023/09/13 03:11:15;;;;;;;0.00;0.00;;;;;;;18.62;100.00;101345.44;5113192;28;20047;-46
2023/09/13 03:13:41;;;;;;;0.00;0.00;;;;;;;18.64;100.00;101342.47;5112242;28;20130;-46
2023/09/13 03:16:14;;;;;;;0.00;0.00;;;;;;;18.62;100.00;101342.69;5095809;28;20661;-46
2023/09/13 03:18:40;;;;;;;0.00;0.00;;;;;;;18.57;100.00;101333.53;5092704;28;20067;-45
2023/09/13 03:21:09;;;;;;;0.00;0.00;;;;;;;18.54;100.00;101347.59;5101867;28;20054;-48
2023/09/13 03:23:37;;;;;;;0.00;0.00;;;;;;;18.53;100.00;101346.75;5112990;28;20032;-44
2023/09/13 03:26:13;;;;;;;0.00;0.00;;;;;;;18.56;100.00;101349.06;5113743;27;20020;-46
2023/09/13 03:28:38;;;;;;;0.00;0.00;;;;;;;18.61;100.00;101356.53;5099054;28;20434;-46
2023/09/13 03:31:15;;;;;;;0.00;0.00;;;;;;;18.60;100.00;101361.16;5101455;28;20115;-46
2023/09/13 03:33:41;;;;;;;0.00;0.00;;;;;;;18.63;100.00;101348.97;5111744;28;20032;-44
2023/09/13 03:36:11;;;;;;;0.00;0.00;;;;;;;18.65;100.00;101352.31;5113424;28;20023;-46
2023/09/13 03:38:40;;;;;;;0.00;0.00;;;;;;;18.67;100.00;101352.09;5113588;28;20023;-47
2023/09/13 03:41:07;;;;;;;0.00;0.00;;;;;;;18.67;100.00;101352.09;5103242;28;20115;-45
2023/09/13 03:43:32;;;;;;;0.00;0.00;;;;;;;18.67;100.00;101350.22;5091791;28;20024;-46
2023/09/13 03:45:57;;;;;;;0.00;0.00;;;;;;;18.72;100.00;101346.78;5109322;28;20032;-43
2023/09/13 03:48:23;;;;;;;0.00;0.00;;;;;;;18.70;100.00;101344.31;5110289;27;20035;-46
2023/09/13 03:50:51;;;;;;;0.00;0.00;;;;;;;18.70;100.00;101336.13;5099250;28;20020;-44
2023/09/13 03:53:17;;;;;;;0.00;0.00;;;;;;;18.70;100.00;101338.84;5093420;28;20117;-44
2023/09/13 03:55:43;;;;;;;0.00;0.00;;;;;;;18.73;100.00;101343.03;5092580;28;20021;-48
2023/09/13 03:58:08;;;;;;;0.00;0.00;;;;;;;18.75;100.00;101347.22;5093328;28;20111;-43
2023/09/13 04:00:37;;;;;;;0.00;0.00;;;;;;;18.81;100.00;101346.31;5096075;28;20044;-46
2023/09/13 04:03:03;;;;;;;0.00;0.00;;;;;;;18.84;100.00;101345.03;5094757;28;20630;-45
2023/09/13 04:05:29;;;;;;;0.00;0.00;;;;;;;18.84;100.00;101334.13;5092597;28;20031;-46
2023/09/13 04:07:55;;;;;;;0.00;0.00;;;;;;;18.87;100.00;101336.41;5093835;28;20103;-43
2023/09/13 04:10:20;;;;;;;0.00;0.00;;;;;;;18.86;100.00;101337.47;5092717;28;20031;-44
2023/09/13 04:12:45;;;;;;;0.00;0.00;;;;;;;18.85;100.00;101342.09;5092302;28;20024;-46
2023/09/13 04:15:11;;;;;;;0.00;0.00;;;;;;;18.88;100.00;101337.25;5099986;28;20378;-44
2023/09/13 04:17:36;;;;;;;0.00;0.00;;;;;;;18.89;100.00;101342.47;5112724;28;20097;-46
2023/09/13 04:20:02;;;;;;;0.00;0.00;;;;;;;18.93;100.00;101343.72;5094959;28;20133;-49
2023/09/13 04:22:28;;;;;;;0.00;0.00;;;;;;;18.99;100.00;101347.44;5092173;28;20171;-45
2023/09/13 04:24:53;;;;;;;0.00;0.00;;;;;;;18.99;100.00;101350.97;5096360;28;20187;-43
2023/09/13 04:27:25;;;;;;;0.00;0.00;;;;;;;18.90;100.00;101376.03;5093292;28;20377;-42
2023/09/13 04:29:52;;;;;;;0.00;0.00;;;;;;;18.68;100.00;101383.75;5094575;28;20031;-43
2023/09/13 04:32:19;;;;;;;0.00;0.00;;;;;;;18.48;100.00;101379.28;5107026;28;20481;-51
2023/09/13 04:34:46;;;;;;;0.00;0.00;;;;;;;18.31;100.00;101389.06;5109637;28;20051;-52
2023/09/13 04:37:12;;;;;;;0.00;0.00;;;;;;;18.06;100.00;101391.72;5107845;28;20100;-47
2023/09/13 04:39:37;;;;;;;0.00;0.00;;;;;;;17.90;100.00;101387.63;5110054;28;20542;-48
2023/09/13 04:42:03;;;;;;;0.00;0.00;;;;;;;17.82;100.00;101394.16;5102202;28;20397;-49
2023/09/13 04:44:29;;;;;;;0.00;0.00;;;;;;;17.69;100.00;101405.91;5090926;28;20027;-48
2023/09/13 04:46:56;;;;;;;0.00;0.00;;;;;;;17.63;100.00;101414.09;5092044;28;20366;-48
2023/09/13 04:49:22;;;;;;;0.00;0.00;;;;;;;17.51;100.00;101411.22;5099298;28;20023;-47
2023/09/13 04:51:47;;;;;;;0.00;0.00;;;;;;;17.48;100.00;101417.94;5096681;28;20027;-45
2023/09/13 04:54:12;;;;;;;0.00;0.00;;;;;;;17.39;100.00;101416.47;5099221;28;20028;-45
2023/09/13 04:56:38;;;;;;;0.00;0.00;;;;;;;17.29;100.00;101414.19;5106639;28;20137;-45
2023/09/13 04:59:04;;;;;;;0.00;0.00;;;;;;;17.21;100.00;101417.13;5111624;28;20027;-45
2023/09/13 05:01:30;;;;;;;0.00;0.00;;;;;;;17.12;100.00;101423.84;5109430;28;20479;-43
2023/09/13 05:03:56;;;;;;;0.00;0.00;;;;;;;17.13;100.00;101432.84;5108868;28;20030;-46
2023/09/13 05:06:22;;;;;;;0.00;0.00;;;;;;;17.00;100.00;101437.22;5091018;28;20115;-48
2023/09/13 05:08:49;;;;;;;0.00;0.00;;;;;;;16.87;100.00;101438.06;5091398;28;20147;-46
2023/09/13 05:11:15;;;;;;;0.03;0.00;;;;;;;16.73;100.00;101444.53;5090748;28;20085;-43
2023/09/13 05:13:40;;;;;;;0.00;0.00;;;;;;;16.74;100.00;101435.31;5091081;28;20118;-47
2023/09/13 05:16:05;;;;;;;0.00;0.00;;;;;;;16.75;100.00;101449.75;5093909;28;20069;-46
2023/09/13 05:18:31;;;;;;;0.00;0.00;;;;;;;16.69;100.00;101448.69;5092136;28;20030;-45
2023/09/13 05:20:56;;;;;;;0.00;0.00;;;;;;;16.62;100.00;101454.13;5095683;28;20080;-49
2023/09/13 05:23:21;;;;;;;0.00;0.00;;;;;;;16.42;100.00;101432.34;5111551;28;20042;-43
2023/09/13 05:25:48;;;;;;;0.00;0.00;;;;;;;16.26;100.00;101440.06;5107343;28;20503;-43
2023/09/13 05:28:17;;;;;;;0.00;0.00;;;;;;;16.22;100.00;101439.63;5093898;28;20031;-45
2023/09/13 05:30:46;;;;;;;0.00;0.00;;;;;;;16.16;100.00;101446.69;5092139;28;20518;-46
2023/09/13 05:33:12;;;;;;;0.00;0.00;;;;;;;16.10;100.00;101452.13;5089937;28;20111;-44
2023/09/13 05:35:37;;;;;;;0.00;0.00;;;;;;;16.00;100.00;101464.19;5097226;28;20116;-44
2023/09/13 05:38:03;;;;;;;0.00;0.00;;;;;;;15.95;100.00;101472.09;5100727;28;20118;-46
2023/09/13 05:40:30;;;;;;;0.00;0.00;;;;;;;15.87;100.00;101475.00;5107917;27;20052;-46
2023/09/13 05:42:56;;;;;;;0.00;0.00;;;;;;;15.82;100.00;101484.78;5102304;28;20378;-47
2023/09/13 05:45:23;;;;;;;0.00;0.00;;;;;;;15.80;100.00;101491.25;5093595;28;20374;-45
2023/09/13 05:47:49;;;;;;;0.00;0.00;;;;;;;15.78;100.00;101503.34;5090983;28;20420;-45
2023/09/13 05:50:14;;;;;;;0.00;0.00;;;;;;;15.80;100.00;101501.28;5099320;28;20108;-46
2023/09/13 05:52:40;;;;;;;0.00;0.00;;;;;;;15.77;100.00;101517.94;5109032;28;20107;-48
2023/09/13 05:55:07;;;;;;;0.00;0.00;;;;;;;15.76;100.00;101510.84;5091210;28;20099;-45
2023/09/13 05:57:32;;;;;;;0.00;0.00;;;;;;;15.79;100.00;101513.16;5091446;28;20028;-47
2023/09/13 05:59:58;;;;;;;0.00;0.00;;;;;;;15.75;100.00;101514.63;5091023;28;20189;-45
2023/09/13 06:02:23;;;;;;;0.00;0.00;;;;;;;15.78;100.00;101511.50;5090876;28;20101;-47
2023/09/13 06:04:49;;;;;;;0.00;0.00;;;;;;;15.81;100.00;101524.66;5108036;28;20035;-44
2023/09/13 06:07:14;;;;;;;0.00;0.00;;;;;;;15.77;100.00;101528.78;5109506;28;20031;-44
2023/09/13 06:09:39;;;;;;;0.00;0.00;;;;;;;15.75;100.00;101531.72;5109320;28;20027;-49
2023/09/13 06:12:05;;;;;;;0.00;0.00;;;;;;;15.77;100.00;101535.09;5106364;28;20482;-48
2023/09/13 06:14:31;;;;;;;0.00;0.00;;;;;;;15.78;100.00;101541.34;5102528;28;20489;-46
2023/09/13 06:16:57;;;;;;;0.00;0.00;;;;;;;15.80;100.00;101533.84;5108984;28;20481;-48
2023/09/13 06:19:23;;;;;;;0.00;0.00;;;;;;;15.84;100.00;101551.41;5097853;28;20073;-44
2023/09/13 06:21:48;;;;;;;0.00;0.00;;;;;;;15.86;100.00;101553.94;5109563;28;20107;-45
2023/09/13 06:24:13;;;;;;;0.00;0.00;;;;;;;15.87;100.00;101552.88;5109172;28;20032;-47
2023/09/13 06:26:39;;;;;;;0.00;0.00;;;;;;;15.90;100.00;101561.44;5110820;28;20097;-46
2023/09/13 06:29:05;;;;;;;0.00;0.00;;;;;;;15.89;100.00;101559.78;5103917;28;20114;-46
2023/09/13 06:31:31;;;;;;;0.00;0.00;;;;;;;15.94;100.00;101568.16;5097827;28;20020;-46
2023/09/13 06:33:56;;;;;;;0.00;0.00;;;;;;;15.98;100.00;101564.03;5107514;28;20129;-46
2023/09/13 06:36:22;;;;;;;0.00;0.00;;;;;;;16.01;100.00;101558.19;5111869;28;20115;-45
2023/09/13 06:38:47;;;;;;;0.00;0.00;;;;;;;16.06;100.00;101559.44;5097232;28;20130;-44
2023/09/13 06:41:13;;;;;;;0.00;0.00;;;;;;;16.32;100.00;101558.75;5093792;28;20028;-47
2023/09/13 06:43:39;;;;;;;0.00;0.00;;;;;;;16.91;100.00;101551.88;5092863;28;20031;-47
2023/09/13 06:46:04;;;;;;;0.00;0.00;;;;;;;18.12;100.00;101549.69;5104347;28;20570;-46
2023/09/13 06:48:30;;;;;;;0.00;0.00;;;;;;;19.20;100.00;101545.34;5103684;28;20024;-47
2023/09/13 06:50:55;;;;;;;0.00;0.00;;;;;;;20.32;100.00;101554.31;5093647;28;20028;-46
2023/09/13 06:53:21;;;;;;;0.00;0.00;;;;;;;21.07;100.00;101544.88;5100011;28;20070;-46
2023/09/13 06:55:46;;;;;;;0.00;0.00;;;;;;;21.85;100.00;101559.34;5110322;28;20026;-43
2023/09/13 06:58:12;;;;;;;0.00;0.00;;;;;;;22.42;100.00;101566.91;5111552;28;20082;-45
2023/09/13 07:00:39;;;;;;;0.00;0.00;;;;;;;22.86;100.00;101572.72;5103182;28;20106;-46
2023/09/13 07:03:05;;;;;;;0.00;0.00;;;;;;;23.06;100.00;101562.09;5100581;27;20034;-45
2023/09/13 07:05:30;;;;;;;0.00;0.00;;;;;;;22.37;100.00;101567.63;5102219;28;20032;-47
2023/09/13 07:07:55;;;;;;;0.00;0.00;;;;;;;21.66;100.00;101564.97;5098957;28;20488;-46
2023/09/13 07:10:21;;;;;;;0.00;0.00;;;;;;;21.29;100.00;101577.16;5108494;28;20031;-45
2023/09/13 07:12:46;;;;;;;0.00;0.00;;;;;;;20.52;100.00;101569.63;5112350;28;20106;-44
2023/09/13 07:15:12;;;;;;;0.00;0.00;;;;;;;20.05;100.00;101569.34;5104764;28;20071;-46
2023/09/13 07:17:37;;;;;;;0.00;0.00;;;;;;;20.48;100.00;101579.34;5112848;27;20023;-44
2023/09/13 07:20:05;;;;;;;0.00;0.00;;;;;;;20.77;100.00;101577.72;5110430;28;20432;-44
2023/09/13 07:22:30;;;;;;;0.00;0.00;;;;;;;20.54;100.00;101589.41;5113364;27;20122;-46
2023/09/13 07:24:56;;;;;;;0.00;0.00;;;;;;;20.35;100.00;101583.94;5096187;28;20454;-46
2023/09/13 07:27:21;;;;;;;0.00;0.00;;;;;;;20.09;100.00;101601.47;5093909;28;20186;-45
2023/09/13 07:29:47;;;;;;;0.00;0.00;;;;;;;19.82;100.00;101614.56;5100286;27;20088;-48
2023/09/13 07:32:13;;;;;;;0.00;0.00;;;;;;;19.70;100.00;101622.66;5103175;28;20412;-46
2023/09/13 07:34:38;;;;;;;0.00;0.00;;;;;;;19.84;100.00;101626.09;5107988;27;20024;-47
2023/09/13 07:37:04;;;;;;;0.00;0.00;;;;;;;20.26;100.00;101633.66;5102238;28;20027;-48
2023/09/13 07:39:29;;;;;;;0.00;0.00;;;;;;;20.46;100.00;101647.09;5102638;28;20024;-45
2023/09/13 07:41:54;;;;;;;0.00;0.00;;;;;;;20.82;100.00;101647.09;5104022;28;20381;-47
2023/09/13 07:44:20;;;;;;;0.00;0.00;;;;;;;20.82;100.00;101647.09;5106853;28;20059;-45
2023/09/13 07:46:45;;;;;;;0.00;0.00;;;;;;;21.03;100.00;101659.44;5094755;28;20043;-48
2023/09/13 07:49:10;;;;;;;0.00;0.00;;;;;;;21.90;100.00;101667.19;5098109;28;20455;-44
2023/09/13 07:51:36;;;;;;;0.00;0.00;;;;;;;22.27;100.00;101669.69;5111895;28;20035;-45
2023/09/13 07:54:04;;;;;;;0.00;0.00;;;;;;;22.12;100.00;101672.09;5110664;27;20043;-47
2023/09/13 07:56:31;;;;;;;0.00;0.00;;;;;;;21.99;100.00;101675.91;5105716;28;20363;-45
2023/09/13 07:58:56;;;;;;;0.00;0.00;;;;;;;21.84;100.00;101678.25;5099033;28;21106;-45
2023/09/13 08:01:22;;;;;;;0.00;0.00;;;;;;;22.20;100.00;101674.50;5104509;28;20034;-46
2023/09/13 08:03:47;;;;;;;0.00;0.00;;;;;;;22.69;100.00;101669.50;5107302;27;20058;-44
2023/09/13 08:06:12;;;;;;;0.00;0.00;;;;;;;22.82;100.00;101675.81;5111615;28;20395;-45
2023/09/13 08:08:38;;;;;;;0.00;0.00;;;;;;;22.62;100.00;101678.94;5120285;27;20420;-46
2023/09/13 08:11:03;;;;;;;0.00;0.00;;;;;;;22.38;100.00;101678.16;5127015;27;20028;-45
2023/09/13 08:13:29;;;;;;;0.00;0.00;;;;;;;22.18;100.00;101678.53;5100532;27;20073;-47
2023/09/13 08:15:54;;;;;;;0.00;0.00;;;;;;;22.06;100.00;101684.00;5101451;28;20026;-50
2023/09/13 08:18:20;;;;;;;0.00;0.00;;;;;;;21.87;100.00;101686.84;5105169;28;20472;-47
2023/09/13 08:20:45;;;;;;;0.00;0.00;;;;;;;21.94;100.00;101696.88;5094423;28;20031;-47
2023/09/13 08:23:11;;;;;;;0.00;0.00;;;;;;;21.62;100.00;101692.53;5109965;28;20027;-47
2023/09/13 08:25:36;;;;;;;0.00;0.00;;;;;;;21.50;100.00;101708.09;5112329;28;20074;-47
2023/09/13 08:28:01;;;;;;;0.00;0.00;;;;;;;21.59;100.00;101708.59;5112705;28;20015;-45
2023/09/13 08:30:27;;;;;;;0.00;0.00;;;;;;;22.58;100.00;101717.84;5112660;28;20077;-45
2023/09/13 08:32:52;;;;;;;0.00;0.00;;;;;;;22.97;100.00;101729.13;5112218;28;20111;-44
2023/09/13 08:35:17;;;;;;;0.00;0.00;;;;;;;23.32;100.00;101741.91;5112169;28;20435;-45
2023/09/13 08:37:43;;;;;;;0.00;0.00;;;;;;;23.96;100.00;101746.34;5112402;28;20019;-44
2023/09/13 08:40:10;;;;;;;0.00;0.00;;;;;;;24.98;100.00;101756.97;5112139;28;20059;-45
2023/09/13 08:42:36;;;;;;;0.00;0.00;;;;;;;26.02;95.76;101755.06;5111760;28;20396;-45
2023/09/13 08:45:02;;;;;;;0.00;0.00;;;;;;;25.64;92.72;101750.56;5108913;28;20024;-45
2023/09/13 08:47:29;;;;;;;0.00;0.00;;;;;;;25.11;95.05;101764.00;5090609;28;20028;-46
2023/09/13 08:49:55;;;;;;;0.00;0.00;;;;;;;24.67;98.03;101768.66;5091528;28;20277;-49
2023/09/13 08:52:22;;;;;;;0.00;0.00;;;;;;;24.54;98.53;101769.88;5110330;28;20026;-48
2023/09/13 08:54:49;;;;;;;0.00;0.00;;;;;;;24.27;99.85;101773.28;5111831;28;20377;-50
2023/09/13 08:57:15;;;;;;;0.00;0.00;;;;;;;23.93;99.49;101777.09;5111918;28;20506;-44
2023/09/13 08:59:40;;;;;;;0.00;0.00;;;;;;;23.56;100.00;101780.25;5111205;28;20070;-42
2023/09/13 09:02:11;;;;;;;0.00;0.00;;;;;;;23.16;100.00;101783.88;5110315;28;20028;-43
2023/09/13 09:04:36;;;;;;;0.00;0.00;;;;;;;22.96;100.00;101778.75;5109852;28;20596;-45
2023/09/13 09:07:02;;;;;;;0.00;0.00;;;;;;;23.21;100.00;101786.72;5112147;27;20039;-45
2023/09/13 09:09:31;;;;;;;0.00;0.00;;;;;;;23.13;100.00;101792.59;5111611;28;20047;-45
2023/09/13 09:12:00;;;;;;;0.00;0.00;;;;;;;22.73;100.00;101790.63;5110592;28;20020;-47
2023/09/13 09:14:30;;;;;;;0.00;0.00;;;;;;;22.69;100.00;101793.00;5111783;28;20024;-48
2023/09/13 09:16:56;;;;;;;0.00;0.00;;;;;;;22.46;100.00;101793.00;5091493;28;20024;-45
2023/09/13 09:19:21;;;;;;;0.00;0.00;;;;;;;22.45;100.00;101796.81;5090719;28;20031;-43
2023/09/13 09:21:47;;;;;;;0.00;0.00;;;;;;;22.67;100.00;101797.91;5090788;28;20402;-46
2023/09/13 09:24:12;;;;;;;0.00;0.00;;;;;;;22.89;100.00;101792.63;5073319;28;20039;-44
2023/09/13 09:26:38;;;;;;;0.00;0.00;;;;;;;22.89;100.00;101792.63;5091802;28;20115;-47
2023/09/13 09:29:14;;;;;;;0.00;0.00;;;;;;;22.97;100.00;101806.00;5090838;28;20077;-43
2023/09/13 09:31:39;;;;;;;0.00;0.00;;;;;;;22.94;100.00;101795.47;5092027;28;20028;-46
2023/09/13 09:34:05;;;;;;;0.00;0.00;;;;;;;23.13;100.00;101809.09;5080032;28;20024;-44
2023/09/13 09:36:34;;;;;;;0.00;0.00;;;;;;;23.48;100.00;101813.63;5103330;28;20050;-46
2023/09/13 09:39:01;;;;;;;0.00;0.00;;;;;;;23.86;99.31;101813.84;5089723;28;20141;-43
2023/09/13 09:41:37;;;;;;;0.00;0.00;;;;;;;23.81;97.25;101819.25;5101950;28;20023;-46
2023/09/13 09:44:03;;;;;;;0.00;0.00;;;;;;;23.85;98.45;101811.34;5110823;28;20024;-45
2023/09/13 09:46:33;;;;;;;0.00;0.00;;;;;;;23.60;100.00;101822.66;5108156;28;20027;-46
2023/09/13 09:49:00;;;;;;;0.00;0.00;;;;;;;23.50;99.39;101825.22;5111099;28;20032;-46
2023/09/13 09:51:26;;;;;;;0.00;0.00;;;;;;;23.22;100.00;101826.84;5111042;28;20212;-47
2023/09/13 09:53:52;;;;;;;0.00;0.00;;;;;;;22.84;100.00;101830.94;5110520;28;20028;-46
2023/09/13 09:56:17;;;;;;;0.00;0.00;;;;;;;22.53;100.00;101832.97;5092584;28;20409;-45
2023/09/13 09:58:45;;;;;;;0.00;0.00;;;;;;;22.58;100.00;101840.47;5109574;28;20034;-44
2023/09/13 10:01:16;;;;;;;;;;;;;;;22.71;100.00;101833.94;5111286;28;20132;-49
2023/09/13 10:03:42;;;;;;;0.00;0.00;;;;;;;22.91;100.00;101828.09;5110554;28;20064;-46
2023/09/13 10:06:15;;;;;;;0.00;0.00;;;;;;;22.74;100.00;101837.00;5111059;28;20110;-43
2023/09/13 10:08:48;;;;;;;0.00;0.00;;;;;;;22.70;100.00;101840.50;5109899;28;20323;-47
2023/09/13 10:11:15;;;;;;;0.00;0.00;;;;;;;22.62;100.00;101836.22;5097643;28;20089;-45
2023/09/13 10:13:44;;;;;;;0.00;0.00;;;;;;;22.56;100.00;101838.00;5098680;28;20073;-44
2023/09/13 10:16:11;;;;;;;0.00;0.00;;;;;;;22.50;100.00;101849.91;5090975;28;20727;-46
2023/09/13 10:18:57;;;;;;;0.00;0.00;;;;;;;22.27;100.00;101841.63;5090826;28;20055;-49
2023/09/13 10:21:27;;;;;;;0.00;0.00;;;;;;;22.04;100.00;101851.47;5090031;28;20381;-46
2023/09/13 10:24:06;;;;;;;0.00;0.00;;;;;;;21.78;100.00;101849.09;5089118;28;20054;-46
2023/09/13 10:26:32;;;;;;;0.00;0.00;;;;;;;21.63;100.00;101855.00;5089072;28;20036;-45
2023/09/13 10:29:11;;;;;;;0.00;0.00;;;;;;;21.90;100.00;101860.94;5090261;28;20033;-45
2023/09/13 10:31:41;;;;;;;0.00;0.00;;;;;;;22.26;100.00;101854.50;5091059;28;20031;-46
2023/09/13 10:34:10;;;;;;;0.00;0.00;;;;;;;22.36;100.00;101859.44;5099111;28;20063;-46
2023/09/13 10:36:39;;;;;;;0.00;0.00;;;;;;;22.42;100.00;101863.97;5106064;28;20020;-43
2023/09/13 10:39:14;;;;;;;0.00;0.00;;;;;;;22.16;100.00;101872.59;5102444;28;20044;-45
2023/09/13 10:41:49;;;;;;;0.00;0.00;;;;;;;21.60;100.00;101871.91;5093690;28;20548;-46
2023/09/13 10:44:14;;;;;;;0.00;0.00;;;;;;;21.08;100.00;101885.94;5097422;28;21360;-46
2023/09/13 10:46:40;;;;;;;0.00;0.00;;;;;;;20.77;100.00;101895.94;5096130;28;20039;-45
2023/09/13 10:49:06;;;;;;;0.00;0.00;;;;;;;20.33;100.00;101894.16;5096333;28;20055;-44
2023/09/13 10:51:32;;;;;;;0.00;0.00;;;;;;;20.09;100.00;101893.03;5102178;28;20051;-44
2023/09/13 10:53:59;;;;;;;0.00;0.00;;;;;;;19.87;100.00;101904.28;5094704;28;20032;-47
2023/09/13 10:56:25;;;;;;;0.00;0.00;;;;;;;19.80;100.00;101905.38;5119990;27;20477;-44
2023/09/13 10:58:51;;;;;;;0.00;0.00;;;;;;;19.59;100.00;101909.22;5098569;27;20020;-45
2023/09/13 11:01:17;;;;;;;0.00;0.00;;;;;;;19.65;100.00;101920.13;5103336;28;20051;-46
2023/09/13 11:03:42;;;;;;;0.00;0.00;;;;;;;19.66;100.00;101921.81;5096292;28;20031;-44
2023/09/13 11:06:08;;;;;;;0.00;0.00;;;;;;;19.56;100.00;101923.31;5084072;28;20051;-46
2023/09/13 11:08:33;;;;;;;0.00;0.00;;;;;;;19.35;100.00;101925.25;5108855;28;20230;-44
2023/09/13 11:11:16;;;;;;;0.00;0.00;;;;;;;19.21;100.00;101935.38;5107749;28;20035;-43
2023/09/13 11:13:43;;;;;;;0.30;0.00;;;;;;;19.15;100.00;101936.22;5103435;28;20046;-45
2023/09/13 11:16:13;;;;;;;0.00;0.00;;;;;;;19.02;100.00;101938.97;5102673;28;20130;-44